BAW446 EGLL-LEMG
Flight info
| Callsign | BAW446 |
|---|---|
| Flight time | N/A |
| Altitude | 35000 |
| Route | GASGU N866 SAM M195 MARUK N621 LELNA DCT NOVAN/N0442F370 DCT DELOG DCT CRISA DCT VULPE |
| Aircraft | A320/M-SDE3FGHIRWY/LB1 |
Departure
| Time | 2026-05-06 15:32 |
|---|---|
| Airport | London Heathrow Airport (EGLL) |
Arrival
| Time | N/A |
|---|---|
| Airport | Málaga-Costa del Sol Airport (LEMG) |
| Time | Latitude | Longitude | Altitude | Speed | Heading |
|---|---|---|---|---|---|
| 2026-05-06 15:26 | 51.47203 | -0.48473 | 86 ft | 0 kts | 180° |
| 2026-05-06 15:26 | 51.47201 | -0.48473 | 86 ft | 1 kts | 180° |
| 2026-05-06 15:27 | 51.47183 | -0.48472 | 87 ft | 4 kts | 180° |
| 2026-05-06 15:27 | 51.47150 | -0.48472 | 86 ft | 6 kts | 180° |
| 2026-05-06 15:27 | 51.47102 | -0.48472 | 86 ft | 8 kts | 180° |
| 2026-05-06 15:27 | 51.47041 | -0.48471 | 86 ft | 10 kts | 179° |
| 2026-05-06 15:28 | 51.46967 | -0.48470 | 87 ft | 11 kts | 180° |
| 2026-05-06 15:28 | 51.46881 | -0.48469 | 88 ft | 13 kts | 180° |
| 2026-05-06 15:28 | 51.46814 | -0.48469 | 86 ft | 0 kts | 179° |
| 2026-05-06 15:29 | 51.46811 | -0.48469 | 86 ft | 1 kts | 179° |
| 2026-05-06 15:29 | 51.46792 | -0.48469 | 86 ft | 4 kts | 179° |
| 2026-05-06 15:29 | 51.46730 | -0.48467 | 86 ft | 11 kts | 180° |
| 2026-05-06 15:30 | 51.46649 | -0.48468 | 86 ft | 12 kts | 180° |
| 2026-05-06 15:30 | 51.46557 | -0.48466 | 86 ft | 14 kts | 178° |
| 2026-05-06 15:30 | 51.46484 | -0.48435 | 88 ft | 8 kts | 100° |
| 2026-05-06 15:30 | 51.46477 | -0.48346 | 89 ft | 8 kts | 81° |
| 2026-05-06 15:31 | 51.46480 | -0.48250 | 89 ft | 10 kts | 89° |
| 2026-05-06 15:31 | 51.46483 | -0.47803 | 87 ft | 83 kts | 89° |
| 2026-05-06 15:31 | 51.46486 | -0.46465 | 93 ft | 153 kts | 90° |
| 2026-05-06 15:32 | 51.46521 | -0.42698 | 1404 ft | 180 kts | 85° |
| 2026-05-06 15:32 | 51.46437 | -0.40609 | 2126 ft | 191 kts | 98° |
| 2026-05-06 15:32 | 51.45805 | -0.38752 | 2877 ft | 197 kts | 131° |
| 2026-05-06 15:32 | 51.44787 | -0.37187 | 3530 ft | 207 kts | 134° |
| 2026-05-06 15:33 | 51.43717 | -0.35488 | 3994 ft | 236 kts | 129° |
| 2026-05-06 15:33 | 51.42413 | -0.33617 | 3969 ft | 252 kts | 148° |
| 2026-05-06 15:33 | 51.40796 | -0.32696 | 4327 ft | 263 kts | 173° |
| 2026-05-06 15:33 | 51.38917 | -0.33066 | 5025 ft | 275 kts | 204° |
| 2026-05-06 15:34 | 51.37323 | -0.34760 | 5733 ft | 284 kts | 223° |
| 2026-05-06 15:34 | 51.35800 | -0.36937 | 5958 ft | 312 kts | 224° |
| 2026-05-06 15:34 | 51.34173 | -0.39325 | 5999 ft | 302 kts | 224° |
| 2026-05-06 15:34 | 51.32719 | -0.41464 | 5991 ft | 275 kts | 225° |
| 2026-05-06 15:35 | 51.31389 | -0.43503 | 5993 ft | 248 kts | 233° |
| 2026-05-06 15:35 | 51.30419 | -0.45804 | 6012 ft | 262 kts | 247° |
| 2026-05-06 15:35 | 51.29815 | -0.48592 | 6528 ft | 268 kts | 258° |
| 2026-05-06 15:35 | 51.29328 | -0.51444 | 7351 ft | 271 kts | 257° |
| 2026-05-06 15:36 | 51.28795 | -0.54400 | 8168 ft | 275 kts | 256° |
| 2026-05-06 15:36 | 51.28251 | -0.57353 | 8965 ft | 279 kts | 256° |
| 2026-05-06 15:36 | 51.27678 | -0.60346 | 9764 ft | 283 kts | 255° |
| 2026-05-06 15:36 | 51.27081 | -0.63383 | 10345 ft | 295 kts | 255° |
| 2026-05-06 15:37 | 51.26442 | -0.66624 | 10529 ft | 317 kts | 255° |
| 2026-05-06 15:37 | 51.25998 | -0.68880 | 10758 ft | 326 kts | 255° |
| 2026-05-06 15:37 | 51.25309 | -0.72379 | 11338 ft | 332 kts | 255° |
| 2026-05-06 15:37 | 51.24384 | -0.77074 | 12226 ft | 337 kts | 254° |
| 2026-05-06 15:38 | 51.23684 | -0.80649 | 13090 ft | 340 kts | 254° |
| 2026-05-06 15:38 | 51.22972 | -0.84266 | 14090 ft | 343 kts | 254° |
| 2026-05-06 15:38 | 51.22247 | -0.87960 | 14705 ft | 358 kts | 254° |
| 2026-05-06 15:38 | 51.21735 | -0.90576 | 14867 ft | 374 kts | 254° |
| 2026-05-06 15:39 | 51.20760 | -0.94576 | 14982 ft | 400 kts | 244° |
| 2026-05-06 15:39 | 51.19198 | -0.98239 | 14999 ft | 406 kts | 230° |
| 2026-05-06 15:39 | 51.17196 | -1.01382 | 15007 ft | 404 kts | 225° |
| 2026-05-06 15:39 | 51.15157 | -1.04468 | 15002 ft | 404 kts | 225° |
| 2026-05-06 15:40 | 51.13123 | -1.07571 | 15233 ft | 408 kts | 226° |
| 2026-05-06 15:40 | 51.11078 | -1.10714 | 15848 ft | 409 kts | 226° |
| 2026-05-06 15:40 | 51.09028 | -1.13866 | 16393 ft | 411 kts | 226° |
| 2026-05-06 15:40 | 51.06966 | -1.17033 | 16942 ft | 414 kts | 225° |
| 2026-05-06 15:41 | 51.04890 | -1.20220 | 17479 ft | 416 kts | 225° |
| 2026-05-06 15:41 | 51.02801 | -1.23421 | 17980 ft | 419 kts | 225° |
| 2026-05-06 15:41 | 51.00697 | -1.26634 | 18472 ft | 421 kts | 225° |
| 2026-05-06 15:41 | 50.98578 | -1.29858 | 18926 ft | 423 kts | 225° |
| 2026-05-06 15:42 | 50.96443 | -1.33094 | 19349 ft | 426 kts | 224° |
| 2026-05-06 15:42 | 50.94104 | -1.35998 | 19773 ft | 430 kts | 215° |
| 2026-05-06 15:42 | 50.91600 | -1.38604 | 20204 ft | 432 kts | 215° |
| 2026-05-06 15:42 | 50.89083 | -1.41226 | 20604 ft | 434 kts | 215° |
| 2026-05-06 15:43 | 50.86554 | -1.43859 | 20989 ft | 436 kts | 214° |
| 2026-05-06 15:43 | 50.84013 | -1.46498 | 21340 ft | 439 kts | 214° |
| 2026-05-06 15:43 | 50.81449 | -1.49157 | 21665 ft | 441 kts | 214° |
| 2026-05-06 15:43 | 50.78879 | -1.51818 | 22002 ft | 443 kts | 214° |
| 2026-05-06 15:44 | 50.76297 | -1.54488 | 22330 ft | 445 kts | 214° |
| 2026-05-06 15:44 | 50.73701 | -1.57166 | 22650 ft | 447 kts | 214° |
| 2026-05-06 15:44 | 50.71097 | -1.59852 | 22967 ft | 448 kts | 214° |
| 2026-05-06 15:44 | 50.68478 | -1.62553 | 23275 ft | 450 kts | 214° |
| 2026-05-06 15:45 | 50.65854 | -1.65258 | 23562 ft | 452 kts | 214° |
| 2026-05-06 15:45 | 50.63214 | -1.67975 | 23823 ft | 454 kts | 214° |
| 2026-05-06 15:45 | 50.60565 | -1.70696 | 24052 ft | 456 kts | 214° |
| 2026-05-06 15:45 | 50.57901 | -1.73426 | 24292 ft | 458 kts | 214° |
| 2026-05-06 15:46 | 50.55229 | -1.76159 | 24525 ft | 459 kts | 214° |
| 2026-05-06 15:46 | 50.52541 | -1.78905 | 24771 ft | 461 kts | 214° |
| 2026-05-06 15:46 | 50.49851 | -1.81656 | 24998 ft | 462 kts | 214° |
| 2026-05-06 15:46 | 50.47155 | -1.84411 | 25209 ft | 464 kts | 214° |
| 2026-05-06 15:47 | 50.44445 | -1.87174 | 25404 ft | 465 kts | 214° |
| 2026-05-06 15:47 | 50.41723 | -1.89944 | 25600 ft | 466 kts | 214° |
| 2026-05-06 15:47 | 50.38998 | -1.92712 | 25781 ft | 468 kts | 214° |
| 2026-05-06 15:47 | 50.37187 | -1.94547 | 25888 ft | 469 kts | 214° |
| 2026-05-06 15:48 | 50.33553 | -1.98228 | 26097 ft | 470 kts | 214° |
| 2026-05-06 15:48 | 50.30799 | -2.01009 | 26249 ft | 471 kts | 214° |
| 2026-05-06 15:48 | 50.28058 | -2.03766 | 26793 ft | 463 kts | 213° |
| 2026-05-06 15:48 | 50.25186 | -2.06044 | 27555 ft | 455 kts | 202° |
| 2026-05-06 15:49 | 50.22201 | -2.07425 | 28090 ft | 454 kts | 192° |
| 2026-05-06 15:49 | 50.19066 | -2.07991 | 28548 ft | 453 kts | 185° |
| 2026-05-06 15:49 | 50.15924 | -2.08369 | 28979 ft | 452 kts | 185° |
| 2026-05-06 15:49 | 50.12789 | -2.08757 | 29392 ft | 452 kts | 186° |
| 2026-05-06 15:50 | 50.09656 | -2.09155 | 29816 ft | 451 kts | 186° |
| 2026-05-06 15:50 | 50.06531 | -2.09560 | 30224 ft | 450 kts | 186° |
| 2026-05-06 15:50 | 50.03411 | -2.09970 | 30598 ft | 449 kts | 186° |
| 2026-05-06 15:50 | 50.00300 | -2.10383 | 30967 ft | 449 kts | 187° |
| 2026-05-06 15:51 | 49.97227 | -2.11163 | 31332 ft | 446 kts | 195° |
| 2026-05-06 15:51 | 49.94250 | -2.12512 | 31694 ft | 445 kts | 198° |
| 2026-05-06 15:51 | 49.91285 | -2.13907 | 32051 ft | 445 kts | 198° |
| 2026-05-06 15:51 | 49.88329 | -2.15292 | 32423 ft | 444 kts | 198° |
| 2026-05-06 15:52 | 49.85369 | -2.16672 | 32791 ft | 444 kts | 198° |
| 2026-05-06 15:52 | 49.82413 | -2.18049 | 33162 ft | 443 kts | 198° |
| 2026-05-06 15:52 | 49.79460 | -2.19420 | 33536 ft | 443 kts | 198° |
| 2026-05-06 15:52 | 49.76509 | -2.20792 | 33916 ft | 442 kts | 198° |
| 2026-05-06 15:53 | 49.73564 | -2.22158 | 34240 ft | 442 kts | 198° |
| 2026-05-06 15:53 | 49.70620 | -2.23520 | 34525 ft | 442 kts | 198° |
| 2026-05-06 15:53 | 49.67675 | -2.24883 | 34794 ft | 442 kts | 198° |
| 2026-05-06 15:53 | 49.64730 | -2.26246 | 35082 ft | 441 kts | 198° |
| 2026-05-06 15:54 | 49.61791 | -2.27610 | 35368 ft | 441 kts | 198° |
| 2026-05-06 15:54 | 49.58855 | -2.28969 | 35646 ft | 440 kts | 198° |
| 2026-05-06 15:54 | 49.55920 | -2.30323 | 35912 ft | 440 kts | 198° |
| 2026-05-06 15:54 | 49.52986 | -2.31671 | 36169 ft | 440 kts | 198° |
| 2026-05-06 15:55 | 49.50055 | -2.33016 | 36406 ft | 440 kts | 198° |
| 2026-05-06 15:55 | 49.47132 | -2.34358 | 36785 ft | 436 kts | 198° |
| 2026-05-06 15:55 | 49.44230 | -2.35691 | 36971 ft | 436 kts | 198° |
| 2026-05-06 15:55 | 49.41310 | -2.37029 | 37004 ft | 441 kts | 198° |
| 2026-05-06 15:56 | 49.35359 | -2.39753 | 37002 ft | 451 kts | 198° |
| 2026-05-06 15:56 | 49.29295 | -2.42518 | 37000 ft | 457 kts | 198° |
| 2026-05-06 15:57 | 49.23196 | -2.45283 | 36998 ft | 458 kts | 198° |
| 2026-05-06 15:57 | 49.17088 | -2.48060 | 36999 ft | 458 kts | 198° |
| 2026-05-06 15:58 | 49.10984 | -2.50834 | 36998 ft | 458 kts | 198° |
| 2026-05-06 15:58 | 49.04868 | -2.53598 | 36991 ft | 458 kts | 198° |
| 2026-05-06 15:59 | 48.98743 | -2.56344 | 36994 ft | 459 kts | 198° |
| 2026-05-06 15:59 | 48.92617 | -2.59096 | 36999 ft | 459 kts | 198° |
| 2026-05-06 16:00 | 48.86485 | -2.61832 | 37005 ft | 460 kts | 198° |
| 2026-05-06 16:00 | 48.80389 | -2.64555 | 37001 ft | 460 kts | 198° |
| 2026-05-06 16:01 | 48.74215 | -2.67316 | 36993 ft | 459 kts | 198° |
| 2026-05-06 16:01 | 48.68133 | -2.70014 | 36989 ft | 459 kts | 198° |
| 2026-05-06 16:02 | 48.62008 | -2.72729 | 36989 ft | 459 kts | 198° |
| 2026-05-06 16:02 | 48.55876 | -2.75438 | 36986 ft | 459 kts | 198° |
| 2026-05-06 16:03 | 48.49742 | -2.78147 | 36996 ft | 459 kts | 198° |
| 2026-05-06 16:03 | 48.43608 | -2.80852 | 36989 ft | 459 kts | 198° |
| 2026-05-06 16:04 | 48.37475 | -2.83550 | 36979 ft | 459 kts | 198° |
| 2026-05-06 16:04 | 48.31332 | -2.86231 | 36980 ft | 460 kts | 198° |
| 2026-05-06 16:05 | 48.25190 | -2.88906 | 36982 ft | 460 kts | 198° |
| 2026-05-06 16:05 | 48.19047 | -2.91577 | 36982 ft | 460 kts | 198° |
| 2026-05-06 16:06 | 48.12901 | -2.94258 | 36980 ft | 460 kts | 198° |
| 2026-05-06 16:06 | 48.06750 | -2.96928 | 36976 ft | 460 kts | 198° |
| 2026-05-06 16:07 | 48.00604 | -2.99584 | 36971 ft | 460 kts | 198° |
| 2026-05-06 16:07 | 47.94460 | -3.02233 | 36974 ft | 460 kts | 198° |
| 2026-05-06 16:08 | 47.88309 | -3.04879 | 36975 ft | 460 kts | 198° |
| 2026-05-06 16:08 | 47.82159 | -3.07520 | 36975 ft | 460 kts | 198° |
| 2026-05-06 16:09 | 47.75998 | -3.10157 | 36982 ft | 461 kts | 198° |
| 2026-05-06 16:09 | 47.69979 | -3.12727 | 36976 ft | 460 kts | 198° |
| 2026-05-06 16:10 | 47.63827 | -3.15348 | 36981 ft | 461 kts | 198° |
| 2026-05-06 16:10 | 47.57667 | -3.17974 | 36976 ft | 460 kts | 198° |
| 2026-05-06 16:11 | 47.51503 | -3.20584 | 36979 ft | 461 kts | 197° |
| 2026-05-06 16:11 | 47.45337 | -3.23179 | 36979 ft | 461 kts | 197° |
| 2026-05-06 16:12 | 47.39172 | -3.25779 | 36984 ft | 460 kts | 198° |
| 2026-05-06 16:12 | 47.33011 | -3.28376 | 36979 ft | 461 kts | 198° |
| 2026-05-06 16:13 | 47.26836 | -3.30966 | 36977 ft | 461 kts | 197° |
| 2026-05-06 16:13 | 47.20663 | -3.33557 | 36987 ft | 461 kts | 198° |
| 2026-05-06 16:14 | 47.14492 | -3.36136 | 36997 ft | 461 kts | 197° |
| 2026-05-06 16:14 | 47.08360 | -3.38682 | 36999 ft | 461 kts | 197° |
| 2026-05-06 16:15 | 47.02186 | -3.41246 | 37002 ft | 461 kts | 198° |
| 2026-05-06 16:15 | 46.95972 | -3.43833 | 37006 ft | 461 kts | 198° |
| 2026-05-06 16:16 | 46.89840 | -3.46371 | 37000 ft | 461 kts | 197° |
| 2026-05-06 16:16 | 46.83659 | -3.48922 | 36995 ft | 462 kts | 197° |
| 2026-05-06 16:17 | 46.77471 | -3.51465 | 36999 ft | 462 kts | 197° |
| 2026-05-06 16:17 | 46.71276 | -3.54010 | 36999 ft | 463 kts | 197° |
| 2026-05-06 16:18 | 46.65079 | -3.56547 | 37002 ft | 463 kts | 197° |
| 2026-05-06 16:18 | 46.58876 | -3.59086 | 37007 ft | 463 kts | 197° |
| 2026-05-06 16:19 | 46.52680 | -3.61615 | 37008 ft | 463 kts | 197° |
| 2026-05-06 16:19 | 46.46480 | -3.64137 | 37007 ft | 463 kts | 197° |
| 2026-05-06 16:20 | 46.40280 | -3.66651 | 37019 ft | 462 kts | 197° |
| 2026-05-06 16:20 | 46.34089 | -3.69160 | 37019 ft | 462 kts | 197° |
| 2026-05-06 16:21 | 46.27735 | -3.70606 | 37015 ft | 464 kts | 187° |
| 2026-05-06 16:21 | 46.21311 | -3.71561 | 37001 ft | 464 kts | 187° |
| 2026-05-06 16:22 | 46.14882 | -3.72500 | 37009 ft | 464 kts | 187° |
| 2026-05-06 16:22 | 46.08452 | -3.73455 | 37014 ft | 465 kts | 187° |
| 2026-05-06 16:23 | 46.03063 | -3.74260 | 37004 ft | 465 kts | 187° |
| 2026-05-06 16:23 | 45.96633 | -3.75210 | 37005 ft | 465 kts | 187° |
| 2026-05-06 16:24 | 45.90194 | -3.76165 | 36999 ft | 465 kts | 187° |
| 2026-05-06 16:24 | 45.83754 | -3.77120 | 37006 ft | 465 kts | 187° |
| 2026-05-06 16:25 | 45.77314 | -3.78069 | 37014 ft | 465 kts | 187° |
| 2026-05-06 16:25 | 45.70869 | -3.79008 | 37007 ft | 466 kts | 187° |
| 2026-05-06 16:26 | 45.64469 | -3.79940 | 37011 ft | 466 kts | 187° |
| 2026-05-06 16:26 | 45.58019 | -3.80882 | 37016 ft | 466 kts | 188° |
| 2026-05-06 16:27 | 45.51577 | -3.81831 | 37017 ft | 466 kts | 187° |
| 2026-05-06 16:27 | 45.45130 | -3.82767 | 37015 ft | 466 kts | 187° |
| 2026-05-06 16:28 | 45.38681 | -3.83698 | 37019 ft | 466 kts | 187° |
| 2026-05-06 16:28 | 45.32232 | -3.84623 | 37020 ft | 466 kts | 187° |
| 2026-05-06 16:29 | 45.25790 | -3.85553 | 37018 ft | 466 kts | 188° |
| 2026-05-06 16:29 | 45.19344 | -3.86481 | 37021 ft | 465 kts | 188° |
| 2026-05-06 16:30 | 45.13992 | -3.87262 | 37023 ft | 465 kts | 188° |
| 2026-05-06 16:30 | 45.06460 | -3.88343 | 37024 ft | 465 kts | 188° |
| 2026-05-06 16:31 | 45.00025 | -3.89258 | 37027 ft | 465 kts | 188° |
| 2026-05-06 16:31 | 44.93583 | -3.90177 | 37029 ft | 465 kts | 188° |
| 2026-05-06 16:32 | 44.87157 | -3.91091 | 37025 ft | 464 kts | 188° |
| 2026-05-06 16:32 | 44.80732 | -3.92005 | 37031 ft | 464 kts | 188° |
| 2026-05-06 16:33 | 44.74308 | -3.92918 | 37032 ft | 464 kts | 188° |
| 2026-05-06 16:34 | 44.64682 | -3.94292 | 37029 ft | 463 kts | 188° |
| 2026-05-06 16:34 | 44.58266 | -3.95199 | 37027 ft | 463 kts | 188° |
| 2026-05-06 16:35 | 44.51900 | -3.96096 | 37023 ft | 463 kts | 188° |
| 2026-05-06 16:35 | 44.45488 | -3.96996 | 37025 ft | 463 kts | 188° |
| 2026-05-06 16:36 | 44.39075 | -3.97883 | 37027 ft | 463 kts | 188° |
| 2026-05-06 16:36 | 44.32663 | -3.98770 | 37021 ft | 463 kts | 188° |
| 2026-05-06 16:37 | 44.26256 | -3.99574 | 37025 ft | 463 kts | 187° |
| 2026-05-06 16:37 | 44.19822 | -4.00275 | 37027 ft | 463 kts | 186° |
| 2026-05-06 16:38 | 44.13401 | -4.00980 | 37012 ft | 463 kts | 187° |
| 2026-05-06 16:38 | 44.06983 | -4.01712 | 37026 ft | 462 kts | 187° |
| 2026-05-06 16:39 | 44.00569 | -4.02453 | 37030 ft | 462 kts | 187° |
| 2026-05-06 16:39 | 43.94159 | -4.03186 | 37019 ft | 462 kts | 187° |
| 2026-05-06 16:40 | 43.87752 | -4.03904 | 37034 ft | 462 kts | 187° |
| 2026-05-06 16:40 | 43.81352 | -4.04627 | 37038 ft | 462 kts | 187° |
| 2026-05-06 16:41 | 43.74945 | -4.05347 | 37027 ft | 461 kts | 187° |
| 2026-05-06 16:41 | 43.68549 | -4.06063 | 37036 ft | 461 kts | 187° |
| 2026-05-06 16:42 | 43.62155 | -4.06786 | 37038 ft | 461 kts | 187° |
| 2026-05-06 16:42 | 43.55764 | -4.07499 | 37033 ft | 461 kts | 187° |
| 2026-05-06 16:43 | 43.49381 | -4.08215 | 37039 ft | 460 kts | 187° |
| 2026-05-06 16:43 | 43.42997 | -4.08932 | 37047 ft | 460 kts | 187° |
| 2026-05-06 16:44 | 43.36624 | -4.09638 | 37049 ft | 460 kts | 187° |
| 2026-05-06 16:44 | 43.30290 | -4.10342 | 37046 ft | 459 kts | 187° |
| 2026-05-06 16:45 | 43.23923 | -4.11047 | 37046 ft | 459 kts | 187° |
| 2026-05-06 16:45 | 43.17555 | -4.11756 | 37046 ft | 459 kts | 187° |
| 2026-05-06 16:46 | 43.11197 | -4.12459 | 37031 ft | 458 kts | 187° |
| 2026-05-06 16:46 | 43.04839 | -4.13151 | 37038 ft | 458 kts | 187° |
| 2026-05-06 16:47 | 42.98476 | -4.13851 | 37034 ft | 458 kts | 187° |
| 2026-05-06 16:47 | 42.92124 | -4.14556 | 37025 ft | 458 kts | 187° |
| 2026-05-06 16:48 | 42.85770 | -4.15252 | 37029 ft | 458 kts | 187° |
| 2026-05-06 16:48 | 42.79428 | -4.15972 | 37055 ft | 457 kts | 188° |
| 2026-05-06 16:49 | 42.73095 | -4.16692 | 37022 ft | 457 kts | 187° |
| 2026-05-06 16:49 | 42.66754 | -4.17344 | 37008 ft | 457 kts | 187° |
| 2026-05-06 16:50 | 42.60416 | -4.18010 | 37000 ft | 457 kts | 187° |
| 2026-05-06 16:50 | 42.54074 | -4.18700 | 36997 ft | 457 kts | 187° |
| 2026-05-06 16:51 | 42.47737 | -4.19390 | 36992 ft | 457 kts | 188° |
| 2026-05-06 16:51 | 42.41400 | -4.20076 | 36989 ft | 457 kts | 188° |
| 2026-05-06 16:52 | 42.35059 | -4.20757 | 36985 ft | 457 kts | 188° |
| 2026-05-06 16:52 | 42.28726 | -4.21434 | 36979 ft | 457 kts | 188° |
| 2026-05-06 16:53 | 42.22389 | -4.22116 | 36981 ft | 457 kts | 188° |
| 2026-05-06 16:53 | 42.16054 | -4.22800 | 36976 ft | 457 kts | 188° |
| 2026-05-06 16:54 | 42.09724 | -4.23467 | 36964 ft | 456 kts | 188° |
| 2026-05-06 16:54 | 42.03389 | -4.24148 | 36972 ft | 456 kts | 188° |
| 2026-05-06 16:55 | 41.97067 | -4.24834 | 36978 ft | 456 kts | 188° |
| 2026-05-06 16:55 | 41.90746 | -4.25506 | 36964 ft | 456 kts | 188° |
| 2026-05-06 16:56 | 41.84426 | -4.26166 | 36973 ft | 455 kts | 188° |
| 2026-05-06 16:56 | 41.78118 | -4.26837 | 36978 ft | 455 kts | 188° |
| 2026-05-06 16:57 | 41.71817 | -4.27515 | 36976 ft | 454 kts | 188° |
| 2026-05-06 16:57 | 41.65515 | -4.28180 | 36968 ft | 454 kts | 188° |
| 2026-05-06 16:58 | 41.59219 | -4.28842 | 36975 ft | 453 kts | 188° |
| 2026-05-06 16:58 | 41.52940 | -4.29495 | 36978 ft | 453 kts | 188° |
| 2026-05-06 16:59 | 41.46661 | -4.30151 | 36961 ft | 452 kts | 188° |
| 2026-05-06 16:59 | 41.40385 | -4.30806 | 36969 ft | 452 kts | 188° |
| 2026-05-06 17:00 | 41.34125 | -4.31461 | 36972 ft | 451 kts | 188° |
| 2026-05-06 17:00 | 41.27867 | -4.32117 | 36975 ft | 451 kts | 188° |
| 2026-05-06 17:01 | 41.21612 | -4.32765 | 36969 ft | 450 kts | 188° |
| 2026-05-06 17:01 | 41.15408 | -4.33405 | 36972 ft | 450 kts | 188° |
| 2026-05-06 17:02 | 41.09123 | -4.34051 | 36966 ft | 450 kts | 188° |
| 2026-05-06 17:02 | 41.02880 | -4.34696 | 36955 ft | 449 kts | 188° |
| 2026-05-06 17:03 | 40.96695 | -4.35340 | 36966 ft | 449 kts | 188° |
| 2026-05-06 17:03 | 40.90420 | -4.35983 | 36961 ft | 449 kts | 188° |
| 2026-05-06 17:04 | 40.84238 | -4.36616 | 36960 ft | 449 kts | 188° |
| 2026-05-06 17:04 | 40.78014 | -4.37256 | 36949 ft | 448 kts | 188° |
| 2026-05-06 17:05 | 40.71796 | -4.37894 | 36957 ft | 448 kts | 188° |
| 2026-05-06 17:05 | 40.65580 | -4.38534 | 36944 ft | 448 kts | 188° |
| 2026-05-06 17:06 | 40.59369 | -4.39164 | 36953 ft | 448 kts | 188° |
| 2026-05-06 17:06 | 40.53150 | -4.39793 | 36935 ft | 448 kts | 188° |
| 2026-05-06 17:07 | 40.46937 | -4.40427 | 36939 ft | 448 kts | 188° |
| 2026-05-06 17:07 | 40.41772 | -4.40959 | 36931 ft | 448 kts | 188° |
| 2026-05-06 17:08 | 40.35558 | -4.41599 | 36914 ft | 448 kts | 188° |
| 2026-05-06 17:08 | 40.29349 | -4.42224 | 36925 ft | 447 kts | 188° |
| 2026-05-06 17:09 | 40.23146 | -4.42853 | 36922 ft | 447 kts | 188° |
| 2026-05-06 17:09 | 40.16954 | -4.43472 | 36912 ft | 446 kts | 188° |
| 2026-05-06 17:10 | 40.10757 | -4.44086 | 36905 ft | 446 kts | 188° |
| 2026-05-06 17:10 | 40.04576 | -4.44705 | 36913 ft | 446 kts | 188° |
| 2026-05-06 17:11 | 39.98382 | -4.45329 | 36910 ft | 446 kts | 188° |
| 2026-05-06 17:11 | 39.92199 | -4.45949 | 36896 ft | 446 kts | 188° |
| 2026-05-06 17:12 | 39.86022 | -4.46573 | 36911 ft | 445 kts | 189° |
| 2026-05-06 17:12 | 39.79849 | -4.47189 | 36915 ft | 445 kts | 188° |
| 2026-05-06 17:13 | 39.73665 | -4.47795 | 36917 ft | 445 kts | 188° |
| 2026-05-06 17:13 | 39.67491 | -4.48408 | 36910 ft | 445 kts | 189° |
| 2026-05-06 17:14 | 39.61325 | -4.49019 | 36917 ft | 445 kts | 189° |
| 2026-05-06 17:14 | 39.55154 | -4.49630 | 36914 ft | 444 kts | 189° |
| 2026-05-06 17:15 | 39.48991 | -4.50238 | 36896 ft | 444 kts | 189° |
| 2026-05-06 17:15 | 39.42834 | -4.50843 | 36905 ft | 443 kts | 189° |
| 2026-05-06 17:16 | 39.36688 | -4.51451 | 36910 ft | 443 kts | 189° |
| 2026-05-06 17:16 | 39.30590 | -4.52055 | 36909 ft | 443 kts | 189° |
| 2026-05-06 17:17 | 39.24448 | -4.52663 | 36894 ft | 442 kts | 189° |
| 2026-05-06 17:17 | 39.18312 | -4.53258 | 36906 ft | 442 kts | 189° |
| 2026-05-06 17:18 | 39.12179 | -4.53846 | 36910 ft | 442 kts | 189° |
| 2026-05-06 17:18 | 39.06009 | -4.54442 | 36913 ft | 442 kts | 189° |
| 2026-05-06 17:19 | 38.99882 | -4.55042 | 36894 ft | 441 kts | 189° |
| 2026-05-06 17:19 | 38.93767 | -4.55646 | 36898 ft | 440 kts | 190° |
| 2026-05-06 17:20 | 38.87722 | -4.56672 | 36908 ft | 437 kts | 194° |
| 2026-05-06 17:20 | 38.81778 | -4.58043 | 36867 ft | 426 kts | 195° |
| 2026-05-06 17:21 | 38.76010 | -4.59362 | 36882 ft | 420 kts | 194° |
| 2026-05-06 17:21 | 38.70290 | -4.60578 | 36879 ft | 419 kts | 194° |
| 2026-05-06 17:22 | 38.64535 | -4.61755 | 36878 ft | 419 kts | 194° |
| 2026-05-06 17:22 | 38.58780 | -4.62938 | 36875 ft | 419 kts | 194° |
| 2026-05-06 17:23 | 38.53027 | -4.64129 | 36861 ft | 419 kts | 194° |
| 2026-05-06 17:23 | 38.47272 | -4.65314 | 36878 ft | 419 kts | 194° |
| 2026-05-06 17:24 | 38.46297 | -4.65513 | 36881 ft | 419 kts | 194° |
| 2026-05-06 17:24 | 38.35188 | -4.67798 | 36886 ft | 418 kts | 194° |
| 2026-05-06 17:25 | 38.30374 | -4.68792 | 36511 ft | 420 kts | 194° |
| 2026-05-06 17:25 | 38.27468 | -4.69394 | 35172 ft | 426 kts | 194° |
| 2026-05-06 17:25 | 38.24552 | -4.69994 | 34370 ft | 418 kts | 194° |
| 2026-05-06 17:25 | 38.21761 | -4.70554 | 34260 ft | 394 kts | 194° |
| 2026-05-06 17:26 | 38.19102 | -4.71088 | 33960 ft | 382 kts | 194° |
| 2026-05-06 17:26 | 38.16489 | -4.71621 | 33478 ft | 380 kts | 194° |
| 2026-05-06 17:26 | 38.13896 | -4.72153 | 33057 ft | 376 kts | 194° |
| 2026-05-06 17:26 | 38.11324 | -4.72684 | 32641 ft | 373 kts | 194° |
| 2026-05-06 17:27 | 38.08770 | -4.73212 | 32191 ft | 370 kts | 194° |
| 2026-05-06 17:27 | 38.06237 | -4.73732 | 31781 ft | 368 kts | 194° |
| 2026-05-06 17:27 | 38.03744 | -4.74241 | 31376 ft | 365 kts | 194° |
| 2026-05-06 17:27 | 38.01245 | -4.74748 | 30963 ft | 363 kts | 194° |
| 2026-05-06 17:28 | 37.98736 | -4.75259 | 30547 ft | 373 kts | 194° |
| 2026-05-06 17:28 | 37.96106 | -4.75805 | 30125 ft | 386 kts | 194° |
| 2026-05-06 17:28 | 37.93464 | -4.76346 | 29658 ft | 384 kts | 194° |
| 2026-05-06 17:28 | 37.90833 | -4.76875 | 29240 ft | 382 kts | 194° |
| 2026-05-06 17:29 | 37.88212 | -4.77399 | 28818 ft | 381 kts | 194° |
| 2026-05-06 17:29 | 37.85604 | -4.77925 | 28388 ft | 379 kts | 194° |
| 2026-05-06 17:29 | 37.83006 | -4.78449 | 28017 ft | 376 kts | 194° |
| 2026-05-06 17:29 | 37.80463 | -4.78964 | 27609 ft | 374 kts | 194° |
| 2026-05-06 17:30 | 37.77899 | -4.79443 | 27186 ft | 374 kts | 189° |
| 2026-05-06 17:30 | 37.75283 | -4.79392 | 26764 ft | 379 kts | 178° |
| 2026-05-06 17:30 | 37.72691 | -4.78662 | 26336 ft | 384 kts | 170° |
| 2026-05-06 17:30 | 37.70126 | -4.77748 | 25908 ft | 382 kts | 170° |
| 2026-05-06 17:31 | 37.67573 | -4.76844 | 25470 ft | 381 kts | 170° |
| 2026-05-06 17:31 | 37.65024 | -4.75950 | 25019 ft | 379 kts | 169° |
| 2026-05-06 17:31 | 37.62478 | -4.75063 | 24574 ft | 379 kts | 169° |
| 2026-05-06 17:31 | 37.59938 | -4.74181 | 24103 ft | 379 kts | 169° |
| 2026-05-06 17:32 | 37.57391 | -4.73298 | 23633 ft | 379 kts | 169° |
| 2026-05-06 17:32 | 37.54857 | -4.72421 | 23308 ft | 375 kts | 169° |
| 2026-05-06 17:32 | 37.52366 | -4.71555 | 22959 ft | 369 kts | 169° |
| 2026-05-06 17:32 | 37.49903 | -4.70694 | 22424 ft | 366 kts | 168° |
| 2026-05-06 17:33 | 37.47443 | -4.69836 | 21645 ft | 367 kts | 168° |
| 2026-05-06 17:33 | 37.45020 | -4.68991 | 21473 ft | 356 kts | 168° |
| 2026-05-06 17:33 | 37.42671 | -4.68171 | 21328 ft | 345 kts | 168° |
| 2026-05-06 17:33 | 37.40375 | -4.67371 | 21016 ft | 340 kts | 168° |
| 2026-05-06 17:34 | 37.38130 | -4.66459 | 20622 ft | 340 kts | 160° |
| 2026-05-06 17:34 | 37.36049 | -4.65037 | 20222 ft | 341 kts | 153° |
| 2026-05-06 17:34 | 37.34003 | -4.63537 | 19819 ft | 339 kts | 153° |
| 2026-05-06 17:34 | 37.31972 | -4.62044 | 19440 ft | 338 kts | 153° |
| 2026-05-06 17:35 | 37.29955 | -4.60557 | 19051 ft | 336 kts | 153° |
| 2026-05-06 17:35 | 37.27919 | -4.59150 | 18683 ft | 331 kts | 160° |